Time;durP1;ratioP1;P1;durP2;ratioP2;P2;SDS_P1;SDS_P2;PMS_P1;PMS_P2;Temp;Humidity;BMP_temperature;BMP_pressure;BME280_temperature;BME280_humidity;BME280_pressure;Samples;Min_cycle;Max_cycle;Signal;HPM_P1;HPM_P2
2021/12/10 00:00:32;;;;;;;76.57;33.50;;;;;;;-1.33;100.00;99705.28;4846035;29;20049;-82
2021/12/10 00:03:01;;;;;;;69.63;29.90;;;;;;;-1.39;100.00;99691.38;4846112;29;20051;-80
2021/12/10 00:05:34;;;;;;;68.27;32.70;;;;;;;-1.40;100.00;99690.50;4861818;29;20251;-81
2021/12/10 00:08:01;;;;;;;73.60;33.37;;;;;;;-1.39;100.00;99683.59;4864243;29;20037;-81
2021/12/10 00:10:35;;;;;;;75.67;34.13;;;;;;;-1.38;100.00;99681.00;4859953;29;20102;-81
2021/12/10 00:13:02;;;;;;;74.00;31.42;;;;;;;-1.40;100.00;99681.84;4862181;29;20472;-81
2021/12/10 00:15:31;;;;;;;68.23;28.43;;;;;;;-1.41;100.00;99668.03;4859410;29;20045;-82
2021/12/10 00:17:59;;;;;;;75.50;32.03;;;;;;;-1.37;100.00;99668.94;4861688;29;20049;-82
2021/12/10 00:20:28;;;;;;;75.20;31.93;;;;;;;-1.36;100.00;99668.94;4845891;29;20571;-82
2021/12/10 00:23:06;;;;;;;73.33;32.93;;;;;;;-1.33;100.00;99666.41;4858449;29;20192;-81
2021/12/10 00:25:39;;;;;;;67.73;31.40;;;;;;;-1.34;100.00;99666.41;4857145;29;21935;-82
2021/12/10 00:28:17;;;;;;;76.83;33.03;;;;;;;-1.36;100.00;99661.16;4860883;29;20045;-82
2021/12/10 00:31:53;;;;;;;75.33;34.90;;;;;;;-1.36;100.00;99670.66;4877017;29;20045;-81
2021/12/10 00:33:59;;;;;;;75.97;32.07;;;;;;;-1.37;100.00;99655.97;4867934;29;20049;-81
2021/12/10 00:36:25;;;;;;;73.33;31.73;;;;;;;-1.33;100.00;99655.19;4847756;29;20082;-81
2021/12/10 00:38:56;;;;;;;80.73;33.80;;;;;;;-1.30;100.00;99645.69;4856558;29;20704;-82
2021/12/10 00:41:24;;;;;;;78.23;32.83;;;;;;;-1.37;100.00;99643.88;4875946;29;20074;-83
2021/12/10 00:43:50;;;;;;;72.43;31.10;;;;;;;-1.35;100.00;99651.66;4869156;29;20056;-83
2021/12/10 00:46:17;;;;;;;72.13;34.00;;;;;;;-1.45;100.00;99648.97;4845954;29;20049;-83
2021/12/10 00:48:44;;;;;;;75.80;32.07;;;;;;;-1.47;100.00;99642.06;4861497;29;20400;-81
2021/12/10 00:51:12;;;;;;;71.00;31.17;;;;;;;-1.52;100.00;99648.88;4859433;29;20138;-82
2021/12/10 00:53:40;;;;;;;67.37;32.10;;;;;;;-1.44;100.00;99636.91;4847354;29;20101;-82
2021/12/10 00:56:07;;;;;;;77.40;34.27;;;;;;;-1.37;100.00;99641.31;4868849;29;20049;-80
2021/12/10 00:58:35;;;;;;;78.03;32.43;;;;;;;-1.35;100.00;99634.41;4856550;29;20041;-82
2021/12/10 01:01:11;;;;;;;72.73;31.53;;;;;;;-1.41;100.00;99626.59;4875341;29;20128;-82
2021/12/10 01:04:15;;;;;;;76.20;32.70;;;;;;;-1.40;100.00;99622.28;4860555;29;20045;-83
2021/12/10 01:06:45;;;;;;;84.27;38.30;;;;;;;-1.33;100.00;99618.91;4857118;29;20052;-83
2021/12/10 01:09:17;;;;;;;80.20;35.07;;;;;;;-1.33;100.00;99614.59;4848315;29;20060;-82
2021/12/10 01:11:53;;;;;;;75.77;32.60;;;;;;;-1.33;100.00;99611.13;4844186;29;20056;-81
2021/12/10 01:14:34;;;;;;;80.60;31.97;;;;;;;-1.37;100.00;99607.63;4857531;29;20040;-81
2021/12/10 01:28:11;;;;;;;79.07;34.67;;;;;;;-1.28;100.00;99581.81;4834146;29;20106;-79
2021/12/10 01:30:39;;;;;;;77.33;33.00;;;;;;;-1.44;100.00;99577.31;4856641;29;20052;-81
2021/12/10 01:33:09;;;;;;;76.73;34.10;;;;;;;-1.45;100.00;99573.00;4861056;29;20052;-81
2021/12/10 01:35:39;;;;;;;74.67;31.73;;;;;;;-1.47;100.00;99575.56;4857836;29;20042;-81
2021/12/10 01:38:08;;;;;;;75.23;33.43;;;;;;;-1.39;100.00;99578.25;4860856;29;20041;-80
2021/12/10 01:40:37;;;;;;;85.07;35.10;;;;;;;-1.42;100.00;99573.03;4856750;29;20045;-81
2021/12/10 01:43:07;;;;;;;83.43;33.70;;;;;;;-1.43;100.00;99568.69;4845670;29;20270;-80
2021/12/10 01:45:44;;;;;;;70.37;33.60;;;;;;;-1.33;100.00;99569.69;4859106;29;20534;-81
2021/12/10 01:48:17;;;;;;;74.27;32.17;;;;;;;-1.47;100.00;99567.81;4858918;29;20052;-82
2021/12/10 01:50:44;;;;;;;80.57;33.20;;;;;;;-1.47;100.00;99572.97;4858979;29;20078;-80
2021/12/10 01:53:15;;;;;;;66.97;30.60;;;;;;;-1.48;100.00;99557.44;4845356;29;20033;-82
2021/12/10 01:55:45;;;;;;;77.57;32.47;;;;;;;-1.36;100.00;99561.84;4849246;29;20056;-81
2021/12/10 01:58:15;;;;;;;80.27;34.43;;;;;;;-1.33;100.00;99555.00;4863960;29;20045;-80
2021/12/10 02:00:45;;;;;;;72.03;32.30;;;;;;;-1.28;100.00;99552.44;4859996;29;20041;-79
2021/12/10 02:03:12;;;;;;;78.57;34.73;;;;;;;-1.39;100.00;99552.34;4859433;29;20048;-80
2021/12/10 02:05:39;;;;;;;74.70;32.77;;;;;;;-1.46;100.00;99547.94;4862589;29;20669;-79
2021/12/10 02:08:06;;;;;;;83.07;32.90;;;;;;;-1.45;100.00;99544.50;4861827;29;20056;-82
2021/12/10 02:10:32;;;;;;;74.03;33.30;;;;;;;-1.49;100.00;99534.97;4856594;29;20519;-79
2021/12/10 02:12:59;;;;;;;69.73;33.00;;;;;;;-1.48;100.00;99529.81;4860595;29;20051;-80
2021/12/10 02:15:28;;;;;;;69.87;31.37;;;;;;;-1.50;100.00;99522.88;4858932;29;20086;-81
2021/12/10 02:17:57;;;;;;;79.13;35.17;;;;;;;-1.45;100.00;99516.88;4861998;29;20411;-80
2021/12/10 02:20:34;;;;;;;80.37;34.67;;;;;;;-1.46;100.00;99516.84;4856566;29;20102;-83
2021/12/10 02:23:04;;;;;;;80.60;33.27;;;;;;;-1.50;100.00;99502.16;4860175;29;20037;-82
2021/12/10 02:25:33;;;;;;;78.63;31.97;;;;;;;-1.53;100.00;99510.75;4843289;29;20125;-80
2021/12/10 02:27:59;;;;;;;77.53;33.97;;;;;;;-1.56;100.00;99504.69;4866354;29;20101;-80
2021/12/10 02:30:27;;;;;;;71.70;33.57;;;;;;;-1.50;100.00;99490.06;4857879;29;20345;-82
2021/12/10 02:32:55;;;;;;;77.00;34.63;;;;;;;-1.51;100.00;99487.47;4869371;29;20033;-81
2021/12/10 02:35:22;;;;;;;79.60;32.53;;;;;;;-1.60;100.00;99480.47;4844568;29;20507;-81
2021/12/10 02:37:48;;;;;;;73.13;31.93;;;;;;;-1.64;100.00;99481.31;4858437;29;20056;-83
2021/12/10 02:40:18;;;;;;;66.50;30.97;;;;;;;-1.69;100.00;99475.19;4857260;29;20107;-80
2021/12/10 02:42:46;;;;;;;85.53;34.20;;;;;;;-1.60;100.00;99471.81;4858537;29;20059;-80
2021/12/10 02:45:16;;;;;;;78.73;35.20;;;;;;;-1.50;100.00;99477.13;4858504;29;20048;-82
2021/12/10 02:47:43;;;;;;;73.60;32.30;;;;;;;-1.58;100.00;99471.00;4860615;29;20048;-82
2021/12/10 02:50:12;;;;;;;83.17;35.60;;;;;;;-1.58;100.00;99462.38;4870496;29;20107;-83
2021/12/10 02:52:38;;;;;;;79.07;35.53;;;;;;;-1.59;100.00;99465.81;4857354;29;20445;-82
2021/12/10 02:55:10;;;;;;;73.33;33.43;;;;;;;-1.58;100.00;99473.59;4858087;29;20041;-82
2021/12/10 02:57:38;;;;;;;71.83;33.30;;;;;;;-1.58;100.00;99468.41;4875444;29;20105;-83
2021/12/10 03:00:11;;;;;;;74.27;34.97;;;;;;;-1.60;100.00;99464.06;4858447;29;20094;-81
2021/12/10 03:02:38;;;;;;;75.27;34.27;;;;;;;-1.60;100.00;99464.91;4858750;29;20049;-83
2021/12/10 03:05:07;;;;;;;76.13;33.93;;;;;;;-1.58;100.00;99468.41;4859315;29;20048;-83
2021/12/10 03:07:35;;;;;;;72.10;31.10;;;;;;;-1.59;100.00;99471.00;4850693;29;20130;-83
2021/12/10 03:10:05;;;;;;;74.33;33.63;;;;;;;-1.52;100.00;99468.44;4863444;29;20053;-84
2021/12/10 03:12:32;;;;;;;74.20;36.00;;;;;;;-1.53;100.00;99476.22;4857329;29;20057;-83
2021/12/10 03:14:59;;;;;;;74.30;34.10;;;;;;;-1.50;100.00;99468.50;4859382;29;20060;-83
2021/12/10 03:17:28;;;;;;;70.97;32.50;;;;;;;-1.57;100.00;99459.78;4861195;29;20046;-83
2021/12/10 03:19:55;;;;;;;75.40;33.90;;;;;;;-1.49;100.00;99457.28;4861040;29;20045;-83
2021/12/10 03:22:23;;;;;;;78.07;34.40;;;;;;;-1.48;100.00;99457.28;4847545;29;20048;-83
2021/12/10 03:24:52;;;;;;;81.40;37.07;;;;;;;-1.36;100.00;99455.63;4848111;29;20556;-83
2021/12/10 03:27:21;;;;;;;78.93;34.17;;;;;;;-1.42;100.00;99459.06;4878559;29;20453;-84
2021/12/10 03:29:49;;;;;;;74.93;32.10;;;;;;;-1.46;100.00;99455.56;4857243;29;20048;-83
2021/12/10 03:32:20;;;;;;;81.17;35.33;;;;;;;-1.43;100.00;99446.94;4862987;29;20037;-82
2021/12/10 03:34:51;;;;;;;74.18;33.70;;;;;;;-1.34;100.00;99441.84;4863678;29;20041;-83
2021/12/10 03:37:19;;;;;;;68.37;33.53;;;;;;;-1.34;100.00;99435.81;4873553;29;20045;-84
2021/12/10 03:39:48;;;;;;;74.20;33.17;;;;;;;-1.36;100.00;99437.50;4865650;29;20049;-82
2021/12/10 03:42:18;;;;;;;83.47;34.97;;;;;;;-1.51;100.00;99425.31;4848019;29;20040;-82
2021/12/10 03:44:45;;;;;;;73.60;33.63;;;;;;;-1.54;100.00;99428.72;4850308;29;20759;-83
2021/12/10 03:47:11;;;;;;;73.30;34.00;;;;;;;-1.53;100.00;99433.06;4871514;29;20538;-84
2021/12/10 03:49:39;;;;;;;72.60;32.57;;;;;;;-1.54;100.00;99422.69;4845811;29;20045;-83
2021/12/10 03:52:07;;;;;;;78.80;34.83;;;;;;;-1.50;100.00;99424.47;4843723;29;20037;-85
2021/12/10 03:54:40;;;;;;;77.47;33.23;;;;;;;-1.53;100.00;99414.91;4859053;29;20056;-83
2021/12/10 03:57:08;;;;;;;80.20;37.50;;;;;;;-1.50;100.00;99417.56;4866219;29;20069;-83
2021/12/10 03:59:36;;;;;;;80.03;32.97;;;;;;;-1.51;100.00;99414.97;4862307;29;20663;-83
2021/12/10 04:02:05;;;;;;;81.33;34.13;;;;;;;-1.41;100.00;99406.41;4880003;29;20049;-82
2021/12/10 04:04:36;;;;;;;78.43;35.90;;;;;;;-1.35;100.00;99403.81;4858598;29;20051;-84
2021/12/10 04:07:07;;;;;;;70.27;33.47;;;;;;;-1.46;100.00;99400.31;4864122;29;20045;-82
2021/12/10 04:09:34;;;;;;;75.47;32.87;;;;;;;-1.46;100.00;99406.34;4862098;29;20051;-83
2021/12/10 04:12:02;;;;;;;74.80;32.13;;;;;;;-1.43;100.00;99405.50;4857887;29;20078;-83
2021/12/10 04:14:29;;;;;;;75.13;33.03;;;;;;;-1.44;100.00;99401.16;4861731;29;20097;-85
2021/12/10 04:16:57;;;;;;;74.57;32.13;;;;;;;-1.45;100.00;99396.84;4865676;29;20045;-84
2021/12/10 04:19:26;;;;;;;67.17;31.80;;;;;;;-1.42;100.00;99396.91;4876532;29;20045;-84
2021/12/10 04:21:56;;;;;;;72.90;33.30;;;;;;;-1.42;100.00;99392.56;4862895;29;20045;-83
2021/12/10 04:24:24;;;;;;;80.17;34.07;;;;;;;-1.29;100.00;99392.66;4863023;29;20117;-84
2021/12/10 04:26:52;;;;;;;74.17;33.23;;;;;;;-1.45;100.00;99389.09;4874552;29;20052;-83
2021/12/10 04:29:20;;;;;;;75.33;31.97;;;;;;;-1.48;100.00;99394.25;4852594;29;20068;-84
2021/12/10 04:31:49;;;;;;;69.20;31.97;;;;;;;-1.56;100.00;99390.72;4849599;29;20049;-85
2021/12/10 04:34:16;;;;;;;70.93;31.53;;;;;;;-1.61;100.00;99392.41;4860234;29;20045;-85
2021/12/10 04:36:43;;;;;;;69.53;31.77;;;;;;;-1.56;100.00;99398.50;4858182;29;20060;-84
2021/12/10 04:39:10;;;;;;;81.60;36.33;;;;;;;-1.47;100.00;99393.38;4847125;29;20101;-82
2021/12/10 04:41:37;;;;;;;84.10;35.73;;;;;;;-1.46;100.00;99400.31;4862429;29;20044;-81
2021/12/10 04:44:04;;;;;;;79.03;34.47;;;;;;;-1.49;100.00;99393.38;4846546;29;20041;-83
2021/12/10 04:46:31;;;;;;;73.40;33.40;;;;;;;-1.51;100.00;99387.34;4861510;29;20056;-83
2021/12/10 04:49:02;;;;;;;75.37;34.23;;;;;;;-1.49;100.00;99392.53;4839816;29;20048;-85
2021/12/10 04:51:35;;;;;;;81.43;36.53;;;;;;;-1.43;100.00;99395.13;4855775;29;20044;-82
2021/12/10 04:54:04;;;;;;;76.47;32.83;;;;;;;-1.49;100.00;99389.94;4859135;29;20041;-84
2021/12/10 04:56:31;;;;;;;68.10;31.40;;;;;;;-1.51;100.00;99394.25;4860254;29;20546;-87
2021/12/10 04:58:59;;;;;;;80.80;33.37;;;;;;;-1.51;100.00;99386.47;4845542;29;20045;-83
2021/12/10 05:01:27;;;;;;;72.33;34.27;;;;;;;-1.48;100.00;99383.88;4860513;29;20064;-83
2021/12/10 05:03:54;;;;;;;92.33;42.77;;;;;;;-1.43;100.00;99387.34;4859816;29;20046;-83
2021/12/10 05:06:21;;;;;;;85.03;38.13;;;;;;;-1.46;100.00;99374.41;4858372;29;20053;-84
2021/12/10 05:08:47;;;;;;;85.33;37.63;;;;;;;-1.44;100.00;99389.09;4871577;29;20041;-82
2021/12/10 05:11:15;;;;;;;82.00;37.93;;;;;;;-1.37;100.00;99384.81;4847993;29;20101;-82
2021/12/10 05:13:44;;;;;;;81.73;41.07;;;;;;;-1.34;100.00;99382.28;4870503;29;20041;-82
2021/12/10 05:16:12;;;;;;;84.30;39.40;;;;;;;-1.42;100.00;99384.81;4885280;23;20059;-80
2021/12/10 05:18:43;;;;;;;75.67;37.23;;;;;;;-1.51;100.00;99381.28;4898393;29;20048;-79
2021/12/10 05:21:13;;;;;;;89.30;42.37;;;;;;;-1.45;100.00;99378.72;4893023;29;20502;-80
2021/12/10 05:23:39;;;;;;;90.43;41.27;;;;;;;-1.48;100.00;99365.75;4881901;29;20045;-80
2021/12/10 05:26:07;;;;;;;91.50;40.90;;;;;;;-1.47;100.00;99364.91;4867522;29;20056;-80
2021/12/10 05:28:34;;;;;;;92.37;44.10;;;;;;;-1.43;100.00;99364.94;4865916;29;20063;-80
2021/12/10 05:31:02;;;;;;;88.83;43.90;;;;;;;-1.46;100.00;99359.72;4869487;29;20055;-79
2021/12/10 05:33:29;;;;;;;89.33;40.20;;;;;;;-1.35;100.00;99353.72;4891975;29;20095;-80
2021/12/10 05:35:57;;;;;;;83.00;38.27;;;;;;;-1.39;100.00;99352.88;4874808;29;20048;-80
2021/12/10 05:38:24;;;;;;;86.40;37.73;;;;;;;-1.44;100.00;99337.28;4866621;29;20040;-80
2021/12/10 05:40:53;;;;;;;78.93;36.40;;;;;;;-1.48;100.00;99338.13;4891798;29;20044;-79
2021/12/10 05:43:21;;;;;;;83.90;37.83;;;;;;;-1.49;100.00;99348.50;4869519;29;20047;-79
2021/12/10 05:45:48;;;;;;;90.13;39.03;;;;;;;-1.49;100.00;99346.75;4874466;29;20044;-80
2021/12/10 05:48:16;;;;;;;86.30;39.17;;;;;;;-1.48;100.00;99347.63;4885559;29;20542;-80
2021/12/10 05:50:43;;;;;;;83.33;37.00;;;;;;;-1.49;100.00;99344.16;4906906;29;20059;-81
2021/12/10 05:53:09;;;;;;;82.40;39.70;;;;;;;-1.51;100.00;99342.44;4876411;29;20497;-81
2021/12/10 05:55:39;;;;;;;70.20;33.37;;;;;;;-1.58;100.00;99336.34;4897189;29;20095;-81
2021/12/10 05:58:06;;;;;;;81.37;36.13;;;;;;;-1.53;100.00;99341.53;4856219;29;20521;-81
2021/12/10 06:00:41;;;;;;;82.80;38.17;;;;;;;-1.51;100.00;99339.84;4874847;29;20057;-81
2021/12/10 06:03:07;;;;;;;77.63;35.83;;;;;;;-1.43;100.00;99341.63;4895132;29;20064;-81
2021/12/10 06:05:34;;;;;;;80.97;37.33;;;;;;;-1.41;100.00;99341.63;4884691;29;20036;-81
2021/12/10 06:08:04;;;;;;;78.87;34.67;;;;;;;-1.33;100.00;99342.56;4866071;29;20056;-81
2021/12/10 06:10:31;;;;;;;80.83;36.83;;;;;;;-1.30;100.00;99339.09;4867618;29;20104;-80
2021/12/10 06:12:58;;;;;;;78.23;35.37;;;;;;;-1.30;100.00;99342.56;4894901;29;20045;-83
2021/12/10 06:15:26;;;;;;;72.97;33.63;;;;;;;-1.31;100.00;99340.81;4848160;29;20414;-83
2021/12/10 06:17:53;;;;;;;81.17;35.80;;;;;;;-1.36;100.00;99339.91;4880274;29;20509;-83
2021/12/10 06:20:24;;;;;;;77.33;32.63;;;;;;;-1.46;100.00;99340.72;4870137;29;20072;-83
2021/12/10 06:22:51;;;;;;;68.47;33.53;;;;;;;-1.42;100.00;99342.50;4881103;29;20108;-83
2021/12/10 06:25:18;;;;;;;72.43;35.30;;;;;;;-1.39;100.00;99336.47;4864876;29;20044;-81
2021/12/10 06:27:45;;;;;;;80.87;34.13;;;;;;;-1.38;100.00;99333.00;4869044;29;20064;-81
2021/12/10 06:30:15;;;;;;;79.47;35.47;;;;;;;-1.43;100.00;99331.28;4874081;29;20040;-82
2021/12/10 06:32:43;;;;;;;74.20;32.60;;;;;;;-1.45;100.00;99327.78;4846108;29;20108;-83
2021/12/10 06:35:11;;;;;;;77.53;33.97;;;;;;;-1.46;100.00;99314.81;4902187;29;20092;-83
2021/12/10 06:37:39;;;;;;;74.30;33.50;;;;;;;-1.44;100.00;99326.06;4851561;29;20053;-83
2021/12/10 06:40:09;;;;;;;80.13;36.93;;;;;;;-1.45;100.00;99322.59;4892649;29;20059;-83
2021/12/10 06:42:36;;;;;;;82.43;35.33;;;;;;;-1.40;100.00;99320.06;4875494;29;20045;-83
2021/12/10 06:45:06;;;;;;;74.00;33.07;;;;;;;-1.49;100.00;99328.63;4855764;29;20508;-83
2021/12/10 06:47:33;;;;;;;81.80;36.03;;;;;;;-1.52;100.00;99326.00;4887948;29;20052;-82
2021/12/10 06:50:01;;;;;;;77.60;34.10;;;;;;;-1.38;100.00;99320.91;4854233;29;20105;-82
2021/12/10 06:52:27;;;;;;;78.60;36.93;;;;;;;-1.41;100.00;99320.91;4886199;29;20044;-83
2021/12/10 06:54:54;;;;;;;76.60;35.73;;;;;;;-1.45;100.00;99321.72;4881611;29;20387;-83
2021/12/10 06:57:21;;;;;;;83.83;35.10;;;;;;;-1.45;100.00;99326.91;4864031;29;20052;-83
2021/12/10 06:59:47;;;;;;;84.97;34.77;;;;;;;-1.46;100.00;99322.59;4870065;29;20044;-83
2021/12/10 07:02:14;;;;;;;84.20;37.17;;;;;;;-1.41;100.00;99313.13;4870967;29;20056;-84
2021/12/10 07:04:41;;;;;;;75.17;35.53;;;;;;;-1.43;100.00;99317.41;4872076;29;20055;-84
2021/12/10 07:07:13;;;;;;;85.33;36.57;;;;;;;-1.35;100.00;99304.50;4895783;29;20045;-84
2021/12/10 07:09:40;;;;;;;81.80;35.87;;;;;;;-1.29;100.00;99308.00;4859036;29;20557;-83
2021/12/10 07:12:07;;;;;;;81.47;35.73;;;;;;;-1.32;100.00;99299.38;4874714;29;20497;-84
2021/12/10 07:14:35;;;;;;;78.47;36.00;;;;;;;-1.31;100.00;99307.16;4904400;29;20052;-83
2021/12/10 07:17:02;;;;;;;76.93;36.70;;;;;;;-1.33;100.00;99308.00;4903076;29;20072;-82
2021/12/10 07:19:29;;;;;;;72.70;33.10;;;;;;;-1.34;100.00;99303.69;4880216;29;20052;-83
2021/12/10 07:21:56;;;;;;;80.00;35.00;;;;;;;-1.31;100.00;99301.97;4907582;29;20048;-84
2021/12/10 07:24:23;;;;;;;82.43;35.80;;;;;;;-1.32;100.00;99302.81;4890824;29;20467;-84
2021/12/10 07:26:50;;;;;;;83.30;33.00;;;;;;;-1.32;100.00;99301.97;4889077;29;20037;-84
2021/12/10 07:29:17;;;;;;;78.40;33.97;;;;;;;-1.32;100.00;99307.16;4874782;29;20044;-84
2021/12/10 07:31:45;;;;;;;74.30;35.47;;;;;;;-1.31;100.00;99303.69;4868490;29;20412;-83
2021/12/10 07:34:12;;;;;;;76.77;35.50;;;;;;;-1.25;100.00;99309.78;4850762;29;20079;-84
2021/12/10 07:36:39;;;;;;;83.00;36.37;;;;;;;-1.33;100.00;99301.09;4864762;29;20267;-85
2021/12/10 07:39:07;;;;;;;77.23;36.53;;;;;;;-1.30;100.00;99297.66;4902512;29;20044;-84
2021/12/10 07:41:34;;;;;;;82.57;43.07;;;;;;;-1.18;100.00;99298.59;4865217;29;20151;-84
2021/12/10 07:44:02;;;;;;;78.93;35.47;;;;;;;-1.17;100.00;99284.78;4869356;29;20061;-83
2021/12/10 07:46:29;;;;;;;87.03;40.00;;;;;;;-1.20;100.00;99300.28;4870393;29;20049;-83
2021/12/10 07:48:56;;;;;;;92.03;42.53;;;;;;;-1.24;100.00;99293.38;4901196;29;20120;-83
2021/12/10 07:51:26;;;;;;;83.50;39.67;;;;;;;-1.20;100.00;99289.91;4888426;29;20550;-84
2021/12/10 07:53:57;;;;;;;77.80;34.93;;;;;;;-1.21;100.00;99288.19;4881632;29;20134;-84
2021/12/10 07:56:26;;;;;;;83.47;35.90;;;;;;;-1.25;100.00;99290.78;4880746;29;20146;-83
2021/12/10 07:58:53;;;;;;;70.97;33.37;;;;;;;-1.16;100.00;99283.91;4889637;29;20124;-83
2021/12/10 08:01:28;;;;;;;76.47;33.87;;;;;;;-1.18;100.00;99285.63;4896095;29;20425;-83
2021/12/10 08:03:57;;;;;;;74.40;34.83;;;;;;;-1.13;100.00;99293.41;4883174;29;20041;-83
2021/12/10 08:06:25;;;;;;;76.83;35.07;;;;;;;-1.08;100.00;99288.25;4874924;29;20091;-83
2021/12/10 08:08:52;;;;;;;71.27;31.93;;;;;;;-1.13;100.00;99283.91;4886034;29;20049;-83
2021/12/10 08:11:19;;;;;;;77.70;36.07;;;;;;;-1.07;100.00;99288.25;4872837;29;20107;-83
2021/12/10 08:13:47;;;;;;;75.30;34.27;;;;;;;-1.11;100.00;99278.72;4903696;29;20056;-83
2021/12/10 08:16:14;;;;;;;74.03;34.30;;;;;;;-1.11;100.00;99280.44;4879231;29;20040;-84
2021/12/10 08:18:41;;;;;;;76.57;34.20;;;;;;;-1.06;100.00;99276.16;4877136;29;20411;-84
2021/12/10 08:21:09;;;;;;;67.00;32.83;;;;;;;-0.99;100.00;99268.41;4908165;29;20041;-83
2021/12/10 08:23:37;;;;;;;77.90;33.53;;;;;;;-1.11;100.00;99273.53;4877484;29;20048;-83
2021/12/10 08:26:05;;;;;;;72.27;32.90;;;;;;;-1.09;100.00;99268.34;4887927;29;20047;-83
2021/12/10 08:28:33;;;;;;;79.97;34.33;;;;;;;-0.96;100.00;99267.56;4903086;29;20048;-83
2021/12/10 08:31:00;;;;;;;84.20;34.97;;;;;;;-0.95;100.00;99272.75;4902451;29;20040;-83
2021/12/10 08:33:27;;;;;;;73.47;32.37;;;;;;;-0.77;100.00;99265.88;4878562;29;20055;-83
2021/12/10 08:36:01;;;;;;;76.50;34.27;;;;;;;-0.83;100.00;99269.34;4874042;29;20448;-83
2021/12/10 08:38:28;;;;;;;;;;;;;;;-0.90;100.00;99270.19;4888301;29;20040;-83
2021/12/10 08:40:59;;;;;;;71.27;31.43;;;;;;;-0.82;100.00;99254.66;4873808;29;19923;-83
2021/12/10 08:43:29;;;;;;;76.73;35.10;;;;;;;-0.86;100.00;99246.84;4887315;29;20071;-83
2021/12/10 08:45:56;;;;;;;77.07;34.37;;;;;;;-0.82;100.00;99241.69;4875801;29;20055;-83
2021/12/10 08:48:25;;;;;;;86.13;37.43;;;;;;;-0.76;100.00;99239.94;4885380;29;20060;-83
2021/12/10 08:50:53;;;;;;;72.83;33.30;;;;;;;-0.65;100.00;99246.03;4870712;29;20047;-82
2021/12/10 08:53:20;;;;;;;76.40;35.50;;;;;;;-0.66;100.00;99240.84;4881178;29;20128;-82
2021/12/10 08:55:50;;;;;;;93.57;38.97;;;;;;;-0.63;100.00;99238.25;4880398;29;20049;-83
2021/12/10 09:01:03;;;;;;;81.53;37.20;;;;;;;-0.53;100.00;99228.75;4899063;29;20045;-80
2021/12/10 09:03:41;;;;;;;73.03;34.03;;;;;;;-0.50;100.00;99232.25;4874048;29;20056;-80
2021/12/10 09:06:09;;;;;;;123.77;57.80;;;;;;;-0.43;100.00;99231.34;4967645;23;20036;-79
2021/12/10 09:08:37;;;;;;;99.80;47.93;;;;;;;-0.42;100.00;99227.03;4903321;29;20044;-80
2021/12/10 09:11:05;;;;;;;88.90;39.73;;;;;;;-0.43;100.00;99235.69;4933566;23;20501;-81
2021/12/10 09:13:32;;;;;;;105.30;58.30;;;;;;;-0.22;100.00;99229.66;4888547;29;20175;-81
2021/12/10 09:16:07;;;;;;;90.70;42.27;;;;;;;-0.30;100.00;99235.69;4872871;29;20056;-81
2021/12/10 09:18:39;;;;;;;72.23;32.23;;;;;;;-0.32;100.00;99221.00;4903777;29;20043;-81
2021/12/10 09:21:08;;;;;;;81.23;33.73;;;;;;;-0.23;100.00;99230.53;4882344;29;20051;-81
2021/12/10 09:23:35;;;;;;;85.13;36.43;;;;;;;-0.30;100.00;99227.91;4893704;29;20080;-81
2021/12/10 09:26:08;;;;;;;73.30;36.80;;;;;;;-0.21;100.00;99232.25;4902451;29;20064;-81
2021/12/10 09:28:36;;;;;;;70.60;30.97;;;;;;;-0.38;100.00;99226.19;4877835;29;20047;-81
2021/12/10 09:31:03;;;;;;;74.43;34.47;;;;;;;-0.46;100.00;99222.72;4894105;29;20044;-81
2021/12/10 09:33:30;;;;;;;85.73;35.57;;;;;;;-0.51;100.00;99227.03;4891649;29;20051;-81
2021/12/10 09:35:57;;;;;;;76.13;34.07;;;;;;;-0.42;100.00;99216.66;4895641;29;20069;-81
2021/12/10 09:38:24;;;;;;;72.10;34.23;;;;;;;-0.28;100.00;99218.38;4883582;29;20104;-81
2021/12/10 09:40:57;;;;;;;72.53;33.40;;;;;;;-0.29;100.00;99213.22;4894463;29;20509;-81
2021/12/10 09:43:24;;;;;;;82.90;35.63;;;;;;;-0.30;100.00;99208.88;4905512;29;20051;-81
2021/12/10 09:45:53;;;;;;;73.77;34.33;;;;;;;-0.14;100.00;99199.38;4912562;29;20505;-81
2021/12/10 09:48:20;;;;;;;69.27;32.23;;;;;;;-0.22;100.00;99204.56;4884208;29;20059;-81
2021/12/10 09:50:57;;;;;;;77.27;34.63;;;;;;;-0.18;100.00;99189.84;4886915;29;20044;-81
2021/12/10 09:53:27;;;;;;;72.97;33.97;;;;;;;-0.16;100.00;99185.53;4887827;29;20044;-81
2021/12/10 09:55:55;;;;;;;74.00;33.90;;;;;;;-0.14;100.00;99184.66;4895332;29;20041;-81
2021/12/10 09:58:22;;;;;;;74.33;37.07;;;;;;;-0.08;100.00;99182.06;4876384;29;20068;-81
2021/12/10 10:00:53;;;;;;;75.80;35.80;;;;;;;-0.23;100.00;99179.47;4876092;29;20101;-81
2021/12/10 10:03:24;;;;;;;79.00;33.80;;;;;;;-0.20;100.00;99174.28;4873509;29;20072;-80
2021/12/10 10:05:51;;;;;;;82.77;36.27;;;;;;;-0.06;100.00;99182.06;4881544;29;20459;-81
2021/12/10 10:08:21;;;;;;;78.37;36.70;;;;;;;-0.06;100.00;99174.25;4892366;29;20105;-80
2021/12/10 10:10:51;;;;;;;72.63;36.33;;;;;;;-0.31;100.00;99173.44;4871656;29;20056;-80
2021/12/10 10:13:24;;;;;;;78.13;34.27;;;;;;;-0.25;100.00;99167.34;4879543;29;20074;-80
2021/12/10 10:15:53;;;;;;;79.80;36.90;;;;;;;-0.17;100.00;99171.69;4883509;29;20041;-80
2021/12/10 10:18:20;;;;;;;80.83;34.97;;;;;;;-0.17;100.00;99166.50;4899393;29;20100;-81
2021/12/10 10:20:50;;;;;;;73.33;35.07;;;;;;;0.01;100.00;99169.94;4882264;29;20039;-80
2021/12/10 10:23:17;;;;;;;70.80;33.47;;;;;;;-0.04;100.00;99165.59;4876034;29;20100;-80
2021/12/10 10:25:50;;;;;;;74.43;34.57;;;;;;;-0.15;100.00;99162.16;4858281;29;20040;-83
2021/12/10 10:28:18;;;;;;;81.10;38.33;;;;;;;-0.14;100.00;99157.84;4883014;29;20055;-81
2021/12/10 10:30:56;;;;;;;72.37;35.07;;;;;;;-0.17;100.00;99158.72;4889977;29;20064;-81
2021/12/10 10:33:25;;;;;;;82.30;34.50;;;;;;;-0.20;100.00;99150.03;4866774;29;20045;-82
2021/12/10 10:35:55;;;;;;;109.90;49.87;;;;;;;-0.04;100.00;99151.75;4861716;29;20108;-82
2021/12/10 10:38:22;;;;;;;73.43;33.23;;;;;;;-0.08;100.00;99145.72;4885586;29;20048;-82
2021/12/10 10:40:55;;;;;;;77.53;34.67;;;;;;;-0.12;100.00;99151.75;4871126;29;20047;-81
2021/12/10 10:43:23;;;;;;;114.80;55.27;;;;;;;-0.03;100.00;99148.28;4885354;29;20049;-81
2021/12/10 10:45:50;;;;;;;84.47;40.57;;;;;;;0.05;100.00;99149.13;4882505;29;20041;-83
2021/12/10 10:48:18;;;;;;;84.33;40.77;;;;;;;0.15;100.00;99156.03;4878890;29;20048;-83
2021/12/10 10:50:52;;;;;;;74.73;33.77;;;;;;;0.21;100.00;99149.97;4883538;29;20048;-82
2021/12/10 10:53:20;;;;;;;;;;;;;;;0.28;100.00;99152.53;4879744;29;20416;-82
2021/12/10 10:56:08;;;;;;;85.10;41.63;;;;;;;0.33;100.00;99149.91;4892857;29;19923;-83
2021/12/10 10:58:46;;;;;;;78.97;37.37;;;;;;;0.43;100.00;99145.56;4877382;29;20048;-83
2021/12/10 11:01:24;;;;;;;79.03;36.33;;;;;;;0.45;100.00;99147.28;4893536;29;20057;-83
2021/12/10 11:04:24;;;;;;;80.10;35.23;;;;;;;0.57;100.00;99144.59;4880399;29;20051;-83
2021/12/10 11:06:54;;;;;;;73.73;36.63;;;;;;;0.51;100.00;99138.59;4883494;29;20052;-82
2021/12/10 11:09:24;;;;;;;76.27;35.80;;;;;;;0.56;100.00;99137.69;4882412;29;20044;-82
2021/12/10 11:12:00;;;;;;;77.57;35.00;;;;;;;0.56;100.00;99140.28;4884594;29;20059;-83
2021/12/10 11:14:36;;;;;;;74.53;36.07;;;;;;;0.70;100.00;99135.03;4882160;29;20049;-82
2021/12/10 11:17:10;;;;;;;75.97;35.07;;;;;;;0.63;100.00;99129.88;4881021;29;20129;-82
2021/12/10 11:19:57;;;;;;;76.27;34.53;;;;;;;0.62;100.00;99128.16;4955694;23;20525;-84
2021/12/10 11:22:24;;;;;;;74.27;35.33;;;;;;;0.66;100.00;99146.31;4888904;29;20108;-82
2021/12/10 11:25:05;;;;;;;76.13;35.53;;;;;;;0.66;100.00;99138.50;4892017;29;20092;-84
2021/12/10 11:27:35;;;;;;;75.73;35.37;;;;;;;0.57;100.00;99138.56;4923258;29;20048;-82
2021/12/10 11:30:02;;;;;;;77.63;34.03;;;;;;;0.67;100.00;99139.38;4886432;29;20040;-83
2021/12/10 11:32:42;;;;;;;75.20;36.57;;;;;;;0.65;100.00;99139.38;4920555;29;20048;-83